createdAt,value
2017-05-15T00:01:27.327Z,22.14
2017-05-15T00:03:56.411Z,20.88
2017-05-15T00:06:25.522Z,19.50
2017-05-15T00:08:54.638Z,19.92
2017-05-15T00:11:24.495Z,19.64
2017-05-15T00:13:53.599Z,20.98
2017-05-15T00:16:22.687Z,19.80
2017-05-15T00:18:51.797Z,21.18
2017-05-15T00:21:20.887Z,18.00
2017-05-15T00:23:50.012Z,17.70
2017-05-15T00:26:19.084Z,15.94
2017-05-15T00:28:48.418Z,16.56
2017-05-15T00:31:17.497Z,15.10
2017-05-15T00:33:46.636Z,16.04
2017-05-15T00:36:15.817Z,21.16
2017-05-15T00:38:45.657Z,15.70
2017-05-15T00:41:14.766Z,15.12
2017-05-15T00:43:43.858Z,19.04
2017-05-15T00:46:12.975Z,17.46
2017-05-15T00:48:42.063Z,15.16
2017-05-15T00:51:11.289Z,17.32
2017-05-15T00:53:40.397Z,15.04
2017-05-15T00:56:10.255Z,15.00
2017-05-15T00:58:39.469Z,14.66
2017-05-15T01:01:08.581Z,17.16
2017-05-15T01:03:38.054Z,14.56
2017-05-15T01:06:07.142Z,15.26
2017-05-15T01:08:36.281Z,14.34
2017-05-15T01:11:05.405Z,14.44
2017-05-15T01:13:34.501Z,15.34
2017-05-15T01:16:03.594Z,12.48
2017-05-15T01:18:32.707Z,16.56
2017-05-15T01:21:01.801Z,18.66
2017-05-15T01:23:30.982Z,13.96
2017-05-15T01:26:00.073Z,14.08
2017-05-15T01:28:29.181Z,18.42
2017-05-15T01:30:58.285Z,20.54
2017-05-15T01:33:27.523Z,18.82
2017-05-15T01:35:57.066Z,19.60
2017-05-15T01:38:26.183Z,17.98
2017-05-15T01:40:55.300Z,19.72
2017-05-15T01:43:24.384Z,24.00
2017-05-15T01:45:53.501Z,19.26
2017-05-15T01:48:22.598Z,16.72
2017-05-15T01:50:51.843Z,21.40
2017-05-15T01:53:20.928Z,17.86
2017-05-15T01:55:50.032Z,19.24
2017-05-15T01:58:19.146Z,21.22
2017-05-15T02:00:48.281Z,21.44
2017-05-15T02:03:17.749Z,20.78
2017-05-15T02:05:46.887Z,21.98
2017-05-15T02:08:16.071Z,45.08
2017-05-15T02:10:45.188Z,37.66
2017-05-15T02:13:15.038Z,40.50
2017-05-15T02:15:44.154Z,72.76
2017-05-15T02:18:13.249Z,40.68
2017-05-15T02:20:42.367Z,58.42
2017-05-15T02:23:11.469Z,74.00
2017-05-15T02:25:41.351Z,138.44
2017-05-15T02:28:10.468Z,78.90
2017-05-15T02:30:39.595Z,112.18
2017-05-15T02:33:08.721Z,42.44
2017-05-15T02:35:37.967Z,112.70
2017-05-15T02:38:07.875Z,106.32
2017-05-15T02:40:36.987Z,111.90
2017-05-15T02:43:07.147Z,82.70
2017-05-15T02:45:36.244Z,62.58
2017-05-15T02:48:05.310Z,56.72
2017-05-15T02:50:34.564Z,84.42
2017-05-15T02:53:03.656Z,69.26
2017-05-15T02:55:32.777Z,101.86
2017-05-15T02:58:02.610Z,32.20
2017-05-15T03:00:31.777Z,51.36
2017-05-15T03:03:01.627Z,43.28
2017-05-15T03:05:30.811Z,56.42
2017-05-15T03:07:59.905Z,36.76
2017-05-15T03:10:29.083Z,41.22
2017-05-15T03:12:58.210Z,42.44
2017-05-15T03:15:27.311Z,29.78
2017-05-15T03:17:56.402Z,23.70
2017-05-15T03:20:25.924Z,22.62
2017-05-15T03:22:55.059Z,19.86
2017-05-15T03:25:24.891Z,26.94
2017-05-15T03:27:54.009Z,22.62
2017-05-15T03:30:23.090Z,29.46
2017-05-15T03:32:52.823Z,24.08
2017-05-15T03:35:21.894Z,39.16
2017-05-15T03:37:50.984Z,27.74
2017-05-15T03:40:20.099Z,25.18
2017-05-15T03:42:49.251Z,18.40
2017-05-15T03:45:19.087Z,20.94
2017-05-15T03:47:48.201Z,16.30
2017-05-15T03:50:17.356Z,36.00
2017-05-15T03:52:47.190Z,62.08
2017-05-15T03:55:16.321Z,17.60
2017-05-15T03:57:45.413Z,19.34
2017-05-15T04:00:14.656Z,56.26
2017-05-15T04:02:44.822Z,32.70
2017-05-15T04:05:13.964Z,64.08
2017-05-15T04:07:43.108Z,42.54
2017-05-15T04:10:12.230Z,76.76
2017-05-15T04:12:41.453Z,119.16
2017-05-15T04:15:10.560Z,63.18
2017-05-15T04:17:40.424Z,62.52
2017-05-15T04:20:09.568Z,59.86
2017-05-15T04:22:39.437Z,55.16
2017-05-15T04:25:08.584Z,56.16
2017-05-15T04:27:37.664Z,65.24
2017-05-15T04:30:07.523Z,24.20
2017-05-15T04:32:36.656Z,49.62
2017-05-15T04:35:05.763Z,94.88
2017-05-15T04:37:34.865Z,69.16
2017-05-15T04:40:04.745Z,95.40
2017-05-15T04:42:33.859Z,37.72
2017-05-15T04:45:02.970Z,38.24
2017-05-15T04:47:32.899Z,45.66
2017-05-15T04:50:01.962Z,41.08
2017-05-15T04:52:31.798Z,56.40
2017-05-15T04:55:01.646Z,39.56
2017-05-15T04:57:30.740Z,22.94
2017-05-15T04:59:59.825Z,23.82
2017-05-15T05:02:28.932Z,13.68
2017-05-15T05:04:58.068Z,14.38
2017-05-15T05:07:27.156Z,12.52
2017-05-15T05:09:56.291Z,13.86
2017-05-15T05:12:25.405Z,13.38
2017-05-15T05:14:54.504Z,15.08
2017-05-15T05:17:23.605Z,13.92
2017-05-15T05:20:17.528Z,13.56
2017-05-15T05:23:07.224Z,12.60
2017-05-15T05:25:56.039Z,13.62
2017-05-15T05:28:37.115Z,13.58
2017-05-15T05:31:18.274Z,14.52
2017-05-15T05:33:47.377Z,16.44
2017-05-15T05:36:40.187Z,21.18
2017-05-15T05:39:22.575Z,18.12
2017-05-15T05:42:08.479Z,18.12
2017-05-15T05:44:37.579Z,16.24
2017-05-15T05:47:06.705Z,18.04
2017-05-15T05:49:35.826Z,19.22
2017-05-15T05:52:05.672Z,18.68
2017-05-15T05:54:34.977Z,20.24
2017-05-15T05:57:07.596Z,19.80
2017-05-15T05:59:48.463Z,17.04
2017-05-15T06:02:19.385Z,21.62
2017-05-15T06:05:00.387Z,18.12
2017-05-15T06:07:41.340Z,18.74
2017-05-15T06:10:22.802Z,16.58
2017-05-15T06:13:15.452Z,15.88
2017-05-15T06:15:56.438Z,16.78
2017-05-15T06:18:37.474Z,18.56
2017-05-15T06:21:06.106Z,17.68
2017-05-15T06:23:47.167Z,18.62
2017-05-15T06:26:28.301Z,15.48
2017-05-15T06:28:57.398Z,19.16
2017-05-15T06:31:26.534Z,20.76
2017-05-15T06:33:55.629Z,15.76
2017-05-15T06:36:24.711Z,14.84
2017-05-15T06:39:05.734Z,13.46
2017-05-15T06:41:59.344Z,15.14
2017-05-15T06:44:28.465Z,17.12
2017-05-15T06:46:57.590Z,15.62
2017-05-15T06:49:27.462Z,22.02
2017-05-15T06:51:56.704Z,15.58
2017-05-15T06:54:25.866Z,16.76
2017-05-15T06:56:54.970Z,17.80
2017-05-15T06:59:24.103Z,17.04
2017-05-15T07:01:53.940Z,16.60
2017-05-15T07:04:23.064Z,19.94
2017-05-15T07:06:51.674Z,16.30
2017-05-15T07:09:21.527Z,13.92
2017-05-15T07:11:50.618Z,16.38
2017-05-15T07:14:19.754Z,18.66
2017-05-15T07:16:48.848Z,16.98
2017-05-15T07:19:18.004Z,12.52
2017-05-15T07:21:47.089Z,16.14
2017-05-15T07:24:16.190Z,14.24
2017-05-15T07:26:45.309Z,15.64
2017-05-15T07:29:14.411Z,13.88
2017-05-15T07:31:43.514Z,14.86
2017-05-15T07:34:12.622Z,10.30
2017-05-15T07:36:41.822Z,12.56
2017-05-15T07:39:10.914Z,12.08
2017-05-15T07:41:40.363Z,11.94
2017-05-15T07:44:09.454Z,11.30
2017-05-15T07:46:38.625Z,12.04
2017-05-15T07:49:08.027Z,13.52
2017-05-15T07:51:37.921Z,15.72
2017-05-15T07:54:07.029Z,10.08
2017-05-15T07:56:36.128Z,14.14
2017-05-15T07:59:05.248Z,11.78
2017-05-15T08:01:34.337Z,13.04
2017-05-15T08:04:03.457Z,12.66
2017-05-15T08:06:32.540Z,9.64
2017-05-15T08:09:01.650Z,10.74
2017-05-15T08:11:30.781Z,13.18
2017-05-15T08:14:00.111Z,13.78
2017-05-15T08:16:29.970Z,10.58
2017-05-15T08:18:59.124Z,12.44
2017-05-15T08:21:28.979Z,8.56
2017-05-15T08:23:58.092Z,10.46
2017-05-15T08:26:27.177Z,7.32
2017-05-15T08:28:56.332Z,8.02
2017-05-15T08:31:25.416Z,8.82
2017-05-15T08:33:54.514Z,8.12
2017-05-15T08:36:23.631Z,11.18
2017-05-15T08:38:52.727Z,8.46
2017-05-15T08:41:21.830Z,5.78
2017-05-15T08:43:50.947Z,6.60
2017-05-15T08:46:20.029Z,10.16
2017-05-15T08:48:49.126Z,8.00
2017-05-15T08:51:18.221Z,7.62
2017-05-15T08:53:47.385Z,6.68
2017-05-15T08:56:16.546Z,5.84
2017-05-15T08:58:45.635Z,7.06
2017-05-15T09:01:14.727Z,6.86
2017-05-15T09:03:43.763Z,6.66
2017-05-15T09:06:12.870Z,7.52
2017-05-15T09:08:41.946Z,5.40
2017-05-15T09:11:11.069Z,6.10
2017-05-15T09:13:40.155Z,6.66
2017-05-15T09:16:09.274Z,6.08
2017-05-15T09:18:38.410Z,5.60
2017-05-15T09:21:08.265Z,5.14
2017-05-15T09:23:37.338Z,5.68
2017-05-15T09:26:06.433Z,4.04
2017-05-15T09:28:35.530Z,6.26
2017-05-15T09:31:04.609Z,5.16
2017-05-15T09:33:34.448Z,8.08
2017-05-15T09:36:03.531Z,6.58
2017-05-15T09:38:32.619Z,7.72
2017-05-15T09:41:01.713Z,7.64
2017-05-15T09:43:30.858Z,6.24
2017-05-15T09:45:59.959Z,7.72
2017-05-15T09:48:29.063Z,8.26
2017-05-15T09:50:58.926Z,7.26
2017-05-15T09:53:28.010Z,9.38
2017-05-15T09:55:57.112Z,7.12
2017-05-15T09:58:26.997Z,6.52
2017-05-15T10:00:56.113Z,7.64
2017-05-15T10:03:25.193Z,6.30
2017-05-15T10:05:54.315Z,5.10
2017-05-15T10:08:23.422Z,5.54
2017-05-15T10:10:52.503Z,4.64
2017-05-15T10:13:21.614Z,7.66
2017-05-15T10:15:50.827Z,5.74
2017-05-15T10:18:19.957Z,7.66
2017-05-15T10:20:49.048Z,5.32
2017-05-15T10:23:18.177Z,6.26
2017-05-15T10:25:47.273Z,4.62
2017-05-15T10:28:16.353Z,7.10
2017-05-15T10:30:45.756Z,6.38
2017-05-15T10:33:14.910Z,8.52
2017-05-15T10:35:43.973Z,5.22
2017-05-15T10:38:13.074Z,5.08
2017-05-15T10:40:42.180Z,4.92
2017-05-15T10:43:11.493Z,4.72
2017-05-15T10:45:40.591Z,4.32
2017-05-15T10:48:09.894Z,4.32
2017-05-15T10:50:38.968Z,2.72
2017-05-15T10:53:08.074Z,4.46
2017-05-15T10:55:38.089Z,4.10
2017-05-15T10:58:07.211Z,4.42
2017-05-15T11:00:36.303Z,6.48
2017-05-15T11:03:05.382Z,7.02
2017-05-15T11:05:35.244Z,6.42
2017-05-15T11:08:04.326Z,4.86
2017-05-15T11:10:33.453Z,7.76
2017-05-15T11:13:02.568Z,3.44
2017-05-15T11:15:31.654Z,5.46
2017-05-15T11:18:00.764Z,2.32
2017-05-15T11:20:29.826Z,3.70
2017-05-15T11:22:58.953Z,4.38
2017-05-15T11:25:28.771Z,3.68
2017-05-15T11:27:58.634Z,6.92
2017-05-15T11:30:27.723Z,4.02
2017-05-15T11:32:56.815Z,3.56
2017-05-15T11:35:26.298Z,3.32
2017-05-15T11:37:55.470Z,4.34
2017-05-15T11:40:24.531Z,2.26
2017-05-15T11:42:53.696Z,1.84
2017-05-15T11:45:22.816Z,2.68
2017-05-15T11:47:51.931Z,3.18
2017-05-15T11:50:21.095Z,6.80
2017-05-15T11:52:50.218Z,4.70
2017-05-15T11:55:19.382Z,2.84
2017-05-15T11:57:48.554Z,3.24
2017-05-15T12:00:18.408Z,4.64
2017-05-15T12:02:47.956Z,2.84
2017-05-15T12:05:17.773Z,5.30
2017-05-15T12:07:47.645Z,4.48
2017-05-15T12:10:16.896Z,5.16
2017-05-15T12:12:46.043Z,5.84
2017-05-15T12:15:15.207Z,6.94
2017-05-15T12:17:44.340Z,6.04
2017-05-15T12:20:13.425Z,4.18
2017-05-15T12:22:42.552Z,2.50
2017-05-15T12:25:12.382Z,4.08
2017-05-15T12:27:41.490Z,4.20
2017-05-15T12:30:10.583Z,3.32
2017-05-15T12:32:39.691Z,4.38
2017-05-15T12:35:08.789Z,2.60
2017-05-15T12:37:37.899Z,1.80
2017-05-15T12:40:06.990Z,2.54
2017-05-15T12:42:36.062Z,3.06
2017-05-15T12:45:05.163Z,3.12
2017-05-15T12:47:34.245Z,4.66
2017-05-15T12:50:03.345Z,4.08
2017-05-15T12:52:32.412Z,3.44
2017-05-15T12:55:01.771Z,3.78
2017-05-15T12:57:30.953Z,2.44
2017-05-15T13:00:00.034Z,1.74
2017-05-15T13:02:29.128Z,3.82
2017-05-15T13:04:58.213Z,5.20
2017-05-15T13:07:27.453Z,4.74
2017-05-15T13:09:56.552Z,5.38
2017-05-15T13:12:25.637Z,5.42
2017-05-15T13:14:54.761Z,3.98
2017-05-15T13:17:24.587Z,4.40
2017-05-15T13:19:54.424Z,5.02
2017-05-15T13:22:23.494Z,4.74
2017-05-15T13:24:52.601Z,3.32
2017-05-15T13:27:21.705Z,2.80
2017-05-15T13:29:50.776Z,4.46
2017-05-15T13:32:20.626Z,2.90
2017-05-15T13:34:49.681Z,7.52
2017-05-15T13:37:19.527Z,3.56
2017-05-15T13:39:49.311Z,5.14
2017-05-15T13:42:18.448Z,4.96
2017-05-15T13:44:47.524Z,2.58
2017-05-15T13:47:16.601Z,2.52
2017-05-15T13:49:45.703Z,3.46
2017-05-15T13:52:14.841Z,2.84
2017-05-15T13:54:43.932Z,4.52
2017-05-15T13:57:13.021Z,3.84
2017-05-15T13:59:42.118Z,2.44
2017-05-15T14:02:11.292Z,4.14
2017-05-15T14:04:40.781Z,2.06
2017-05-15T14:07:09.946Z,3.35
2017-05-15T14:09:39.091Z,3.22
2017-05-15T14:12:08.201Z,5.04
2017-05-15T14:14:37.279Z,3.38
2017-05-15T14:17:06.474Z,2.22
2017-05-15T14:19:35.559Z,2.42
2017-05-15T14:22:04.644Z,3.86
2017-05-15T14:24:33.862Z,3.40
2017-05-15T14:27:02.939Z,2.50
2017-05-15T14:29:32.052Z,3.86
2017-05-15T14:32:01.147Z,2.68
2017-05-15T14:34:30.305Z,3.34
2017-05-15T14:37:00.180Z,4.74
2017-05-15T14:39:29.797Z,4.34
2017-05-15T14:41:58.890Z,4.82
2017-05-15T14:44:27.960Z,2.94
2017-05-15T14:46:57.068Z,7.02
2017-05-15T14:49:26.152Z,3.20
2017-05-15T14:51:55.345Z,4.34
2017-05-15T14:54:24.470Z,5.36
2017-05-15T14:56:53.566Z,6.70
2017-05-15T14:59:22.684Z,4.28
2017-05-15T15:01:52.527Z,2.70
2017-05-15T15:04:21.671Z,4.78
2017-05-15T15:06:50.831Z,2.40
2017-05-15T15:09:20.584Z,2.34
2017-05-15T15:11:50.462Z,4.50
2017-05-15T15:14:20.929Z,3.50
2017-05-15T15:16:50.082Z,2.40
2017-05-15T15:19:19.169Z,1.78
2017-05-15T15:21:48.360Z,6.60
2017-05-15T15:24:17.504Z,3.96
2017-05-15T15:26:47.429Z,2.88
2017-05-15T15:29:17.904Z,4.44
2017-05-15T15:31:46.991Z,3.06
2017-05-15T15:34:16.454Z,3.00
2017-05-15T15:36:46.345Z,3.22
2017-05-15T15:39:15.548Z,2.80
2017-05-15T15:41:45.479Z,6.00
2017-05-15T15:44:16.255Z,2.12
2017-05-15T15:46:46.850Z,3.00
2017-05-15T15:49:16.621Z,2.06
2017-05-15T15:51:45.773Z,3.20
2017-05-15T15:54:15.017Z,2.72
2017-05-15T15:56:44.502Z,1.80
2017-05-15T15:59:13.619Z,2.20
2017-05-15T16:01:42.707Z,2.04
2017-05-15T16:04:11.821Z,3.16
2017-05-15T16:06:40.917Z,1.80
2017-05-15T16:09:10.364Z,6.06
2017-05-15T16:11:39.443Z,3.22
2017-05-15T16:14:08.633Z,2.80
2017-05-15T16:16:38.153Z,3.40
2017-05-15T16:19:07.260Z,1.92
2017-05-15T16:21:36.508Z,4.94
2017-05-15T16:24:05.684Z,2.68
2017-05-15T16:26:34.768Z,5.58
2017-05-15T16:29:03.887Z,2.72
2017-05-15T16:31:33.507Z,1.72
2017-05-15T16:34:04.132Z,3.96
2017-05-15T16:36:34.660Z,6.22
2017-05-15T16:39:03.782Z,2.28
2017-05-15T16:41:32.915Z,3.00
2017-05-15T16:44:02.064Z,2.40
2017-05-15T16:46:31.235Z,2.66
2017-05-15T16:49:00.408Z,2.40
2017-05-15T16:51:29.623Z,3.76
2017-05-15T16:53:58.746Z,3.20
2017-05-15T16:56:29.014Z,2.80
2017-05-15T16:58:58.170Z,2.24
2017-05-15T17:01:27.989Z,2.18
2017-05-15T17:03:57.130Z,2.96
2017-05-15T17:06:26.561Z,1.16
2017-05-15T17:08:55.806Z,1.72
2017-05-15T17:11:25.643Z,2.88
2017-05-15T17:13:54.785Z,2.00
2017-05-15T17:16:24.660Z,2.80
2017-05-15T17:18:53.786Z,3.38
2017-05-15T17:21:23.637Z,6.00
2017-05-15T17:23:53.562Z,1.76
2017-05-15T17:26:23.332Z,3.42
2017-05-15T17:28:52.498Z,1.54
2017-05-15T17:31:21.575Z,1.50
2017-05-15T17:33:51.102Z,2.10
2017-05-15T17:36:20.223Z,2.28
2017-05-15T17:38:49.297Z,1.38
2017-05-15T17:41:19.457Z,2.38
2017-05-15T17:43:48.555Z,4.46
2017-05-15T17:46:17.641Z,1.72
2017-05-15T17:48:46.744Z,1.40
2017-05-15T17:51:15.826Z,1.48
2017-05-15T17:53:44.987Z,3.22
2017-05-15T17:56:14.147Z,3.72
2017-05-15T17:58:43.224Z,2.00
2017-05-15T18:01:12.304Z,1.52
2017-05-15T18:03:41.381Z,2.20
2017-05-15T18:06:11.231Z,1.60
2017-05-15T18:08:40.347Z,2.00
2017-05-15T18:11:09.455Z,1.92
2017-05-15T18:13:38.530Z,3.88
2017-05-15T18:16:07.682Z,2.04
2017-05-15T18:18:37.549Z,2.00
2017-05-15T18:21:06.655Z,2.06
2017-05-15T18:23:35.756Z,2.50
2017-05-15T18:26:05.206Z,1.40
2017-05-15T18:28:34.262Z,2.68
2017-05-15T18:31:04.097Z,2.26
2017-05-15T18:33:33.978Z,2.74
2017-05-15T18:36:03.045Z,3.66
2017-05-15T18:38:32.114Z,3.26
2017-05-15T18:41:01.273Z,2.44
2017-05-15T18:43:30.364Z,1.14
2017-05-15T18:46:00.234Z,1.90
2017-05-15T18:48:29.423Z,1.24
2017-05-15T18:50:58.515Z,2.54
2017-05-15T18:53:27.594Z,1.80
2017-05-15T18:55:56.695Z,1.76
2017-05-15T18:58:25.792Z,3.96
2017-05-15T19:00:54.890Z,2.14
2017-05-15T19:03:24.041Z,2.68
2017-05-15T19:05:53.146Z,2.48
2017-05-15T19:08:22.973Z,2.88
2017-05-15T19:10:52.101Z,3.64
2017-05-15T19:13:21.217Z,4.78
2017-05-15T19:15:50.323Z,2.00
2017-05-15T19:18:19.446Z,2.42
2017-05-15T19:20:49.271Z,4.48
2017-05-15T19:23:18.367Z,2.54
2017-05-15T19:25:47.466Z,1.70
2017-05-15T19:28:17.009Z,2.50
2017-05-15T19:30:46.106Z,1.54
2017-05-15T19:33:15.194Z,1.26
2017-05-15T19:35:44.289Z,1.76
2017-05-15T19:38:13.416Z,5.62
2017-05-15T19:40:42.611Z,2.62
2017-05-15T19:43:11.946Z,1.02
2017-05-15T19:45:41.214Z,5.10
2017-05-15T19:48:11.083Z,2.76
2017-05-15T19:50:40.223Z,1.72
2017-05-15T19:53:10.104Z,1.18
2017-05-15T19:55:39.206Z,1.66
2017-05-15T19:58:08.418Z,1.26
2017-05-15T20:00:37.503Z,2.96
2017-05-15T20:03:06.888Z,4.34
2017-05-15T20:05:35.965Z,2.58
2017-05-15T20:08:05.045Z,7.58
2017-05-15T20:10:34.159Z,6.26
2017-05-15T20:13:03.262Z,2.98
2017-05-15T20:15:32.363Z,6.14
2017-05-15T20:18:01.474Z,2.70
2017-05-15T20:20:30.571Z,2.54
2017-05-15T20:23:00.028Z,2.12
2017-05-15T20:25:29.205Z,1.30
2017-05-15T20:27:58.287Z,2.22
2017-05-15T20:30:27.396Z,2.50
2017-05-15T20:33:01.269Z,2.38
2017-05-15T20:35:38.294Z,2.46
2017-05-15T20:38:09.093Z,2.26
2017-05-15T20:40:39.010Z,1.54
2017-05-15T20:43:08.860Z,1.28
2017-05-15T20:45:38.758Z,1.78
2017-05-15T20:48:08.095Z,2.78
2017-05-15T20:50:37.174Z,1.30
2017-05-15T20:53:06.252Z,2.14
2017-05-15T20:55:35.669Z,2.42
2017-05-15T20:58:04.760Z,1.66
2017-05-15T21:00:33.871Z,1.52
2017-05-15T21:03:02.973Z,1.94
2017-05-15T21:05:32.039Z,1.42
2017-05-15T21:08:01.193Z,3.10
2017-05-15T21:10:30.273Z,2.32
2017-05-15T21:12:59.372Z,1.70
2017-05-15T21:15:28.455Z,2.64
2017-05-15T21:17:57.913Z,2.42
2017-05-15T21:20:27.232Z,3.20
2017-05-15T21:22:56.294Z,2.14
2017-05-15T21:25:26.132Z,3.52
2017-05-15T21:27:55.233Z,1.40
2017-05-15T21:30:24.326Z,2.10
2017-05-15T21:32:53.415Z,1.42
2017-05-15T21:35:22.516Z,1.80
2017-05-15T21:37:51.615Z,3.02
2017-05-15T21:40:20.714Z,2.46
2017-05-15T21:42:49.868Z,1.68
2017-05-15T21:45:19.713Z,1.62
2017-05-15T21:47:48.958Z,1.68
2017-05-15T21:50:18.160Z,4.34
2017-05-15T21:52:47.258Z,4.30
2017-05-15T21:55:17.108Z,1.28
2017-05-15T21:57:46.177Z,7.22
2017-05-15T22:00:16.042Z,1.88
2017-05-15T22:02:45.218Z,2.40
2017-05-15T22:05:15.035Z,5.30
2017-05-15T22:07:44.170Z,3.60
2017-05-15T22:10:13.240Z,2.40
2017-05-15T22:12:42.385Z,2.96
2017-05-15T22:15:11.462Z,3.44
2017-05-15T22:17:41.303Z,3.28
2017-05-15T22:20:10.381Z,2.84
2017-05-15T22:22:40.211Z,2.90
2017-05-15T22:25:09.326Z,3.28
2017-05-15T22:27:38.405Z,3.24
2017-05-15T22:30:07.524Z,2.92
2017-05-15T22:32:36.603Z,3.24
2017-05-15T22:35:05.720Z,3.12
2017-05-15T22:37:34.805Z,4.98
2017-05-15T22:40:04.293Z,4.74
2017-05-15T22:42:33.364Z,4.46
2017-05-15T22:45:02.462Z,3.68
2017-05-15T22:47:31.576Z,4.70
2017-05-15T22:50:00.657Z,5.92
2017-05-15T22:52:29.772Z,5.20
2017-05-15T22:54:58.849Z,7.08
2017-05-15T22:57:27.956Z,3.44
2017-05-15T22:59:57.042Z,3.90
2017-05-15T23:02:26.118Z,4.24
2017-05-15T23:04:55.216Z,5.04
2017-05-15T23:07:24.360Z,7.32
2017-05-15T23:09:53.554Z,5.64
2017-05-15T23:12:22.674Z,8.58
2017-05-15T23:14:51.772Z,7.46
2017-05-15T23:17:23.004Z,5.76
2017-05-15T23:19:54.303Z,5.96
2017-05-15T23:22:23.385Z,5.58
2017-05-15T23:24:52.700Z,5.12
2017-05-15T23:27:21.778Z,7.48
2017-05-15T23:29:50.970Z,6.52
2017-05-15T23:32:20.083Z,6.66
2017-05-15T23:34:49.239Z,6.46
2017-05-15T23:37:18.348Z,5.30
2017-05-15T23:39:48.193Z,5.66
2017-05-15T23:42:17.286Z,5.12
2017-05-15T23:44:46.374Z,5.24
2017-05-15T23:47:15.466Z,6.10
2017-05-15T23:49:44.566Z,6.28
2017-05-15T23:52:13.654Z,6.02
2017-05-15T23:54:42.791Z,7.50
2017-05-15T23:57:11.843Z,7.24
2017-05-15T23:59:40.937Z,7.38
